sensor_id;sensor_type;location;lat;lon;timestamp;temperature;humidity
1075;DHT22;526;51.392;12.448;2023-11-19T05:02:34;6.40;97.30
1075;DHT22;526;51.392;12.448;2023-11-19T05:05:00;6.50;97.30
1075;DHT22;526;51.392;12.448;2023-11-19T05:07:26;6.50;97.30
1075;DHT22;526;51.392;12.448;2023-11-19T05:09:52;6.50;97.30
1075;DHT22;526;51.392;12.448;2023-11-19T05:12:17;6.50;97.30
1075;DHT22;526;51.392;12.448;2023-11-19T05:14:43;6.50;97.30
1075;DHT22;526;51.392;12.448;2023-11-19T05:17:14;6.60;97.30
1075;DHT22;526;51.392;12.448;2023-11-19T05:19:40;6.60;97.30
1075;DHT22;526;51.392;12.448;2023-11-19T05:22:05;6.60;97.30
1075;DHT22;526;51.392;12.448;2023-11-19T05:24:33;6.60;97.30
1075;DHT22;526;51.392;12.448;2023-11-19T05:26:58;6.60;97.30
1075;DHT22;526;51.392;12.448;2023-11-19T05:29:24;6.70;97.30
1075;DHT22;526;51.392;12.448;2023-11-19T05:31:49;6.70;97.30
1075;DHT22;526;51.392;12.448;2023-11-19T05:34:15;6.70;97.30
1075;DHT22;526;51.392;12.448;2023-11-19T05:36:40;6.70;97.30
1075;DHT22;526;51.392;12.448;2023-11-19T05:39:06;6.70;97.30
1075;DHT22;526;51.392;12.448;2023-11-19T05:41:31;6.80;97.30
1075;DHT22;526;51.392;12.448;2023-11-19T05:43:57;6.80;97.30
1075;DHT22;526;51.392;12.448;2023-11-19T05:46:23;6.80;97.30
1075;DHT22;526;51.392;12.448;2023-11-19T05:48:48;6.90;97.30
1075;DHT22;526;51.392;12.448;2023-11-19T05:51:14;6.90;97.30
1075;DHT22;526;51.392;12.448;2023-11-19T05:53:42;6.90;97.30
1075;DHT22;526;51.392;12.448;2023-11-19T05:56:09;6.90;97.30
1075;DHT22;526;51.392;12.448;2023-11-19T05:58:35;6.90;97.30
1075;DHT22;526;51.392;12.448;2023-11-19T06:01:01;7.00;97.30
1075;DHT22;526;51.392;12.448;2023-11-19T06:03:28;6.90;97.30
1075;DHT22;526;51.392;12.448;2023-11-19T06:05:53;7.00;97.30
1075;DHT22;526;51.392;12.448;2023-11-19T06:08:22;7.00;97.30
1075;DHT22;526;51.392;12.448;2023-11-19T06:10:47;7.10;97.30
1075;DHT22;526;51.392;12.448;2023-11-19T06:13:15;7.10;97.30
1075;DHT22;526;51.392;12.448;2023-11-19T06:15:44;7.10;97.30
1075;DHT22;526;51.392;12.448;2023-11-19T06:18:10;7.10;97.30
1075;DHT22;526;51.392;12.448;2023-11-19T06:20:37;7.10;97.30
1075;DHT22;526;51.392;12.448;2023-11-19T06:23:03;7.20;97.30
1075;DHT22;526;51.392;12.448;2023-11-19T06:25:28;7.20;97.30
1075;DHT22;526;51.392;12.448;2023-11-19T06:27:54;7.20;97.30
1075;DHT22;526;51.392;12.448;2023-11-19T06:30:20;7.20;97.30
1075;DHT22;526;51.392;12.448;2023-11-19T06:32:48;7.30;97.30
1075;DHT22;526;51.392;12.448;2023-11-19T06:35:13;7.30;97.30
1075;DHT22;526;51.392;12.448;2023-11-19T06:37:39;7.30;97.30
1075;DHT22;526;51.392;12.448;2023-11-19T06:40:06;7.40;97.30
1075;DHT22;526;51.392;12.448;2023-11-19T06:42:32;7.40;97.30
1075;DHT22;526;51.392;12.448;2023-11-19T06:44:58;7.50;97.30
1075;DHT22;526;51.392;12.448;2023-11-19T06:47:27;7.50;97.30
1075;DHT22;526;51.392;12.448;2023-11-19T06:49:53;7.50;97.30
1075;DHT22;526;51.392;12.448;2023-11-19T06:52:19;7.50;97.30
1075;DHT22;526;51.392;12.448;2023-11-19T06:54:45;7.50;97.30
1075;DHT22;526;51.392;12.448;2023-11-19T06:57:11;7.50;97.30
1075;DHT22;526;51.392;12.448;2023-11-19T06:59:37;7.40;97.30
1075;DHT22;526;51.392;12.448;2023-11-19T07:02:03;7.50;97.30
1075;DHT22;526;51.392;12.448;2023-11-19T07:04:30;7.40;97.30
1075;DHT22;526;51.392;12.448;2023-11-19T07:06:55;7.40;97.30
1075;DHT22;526;51.392;12.448;2023-11-19T07:09:21;7.50;97.30
1075;DHT22;526;51.392;12.448;2023-11-19T07:11:46;7.50;97.30
1075;DHT22;526;51.392;12.448;2023-11-19T07:14:12;7.50;97.30
1075;DHT22;526;51.392;12.448;2023-11-19T07:16:38;7.50;97.30
1075;DHT22;526;51.392;12.448;2023-11-19T07:19:05;7.60;97.30
1075;DHT22;526;51.392;12.448;2023-11-19T07:21:30;7.70;97.30
1075;DHT22;526;51.392;12.448;2023-11-19T07:23:56;7.70;97.30
1075;DHT22;526;51.392;12.448;2023-11-19T07:26:22;7.70;97.30
1075;DHT22;526;51.392;12.448;2023-11-19T07:28:51;7.80;97.30
1075;DHT22;526;51.392;12.448;2023-11-19T07:31:17;7.90;97.30
1075;DHT22;526;51.392;12.448;2023-11-19T07:33:46;8.00;97.30
1075;DHT22;526;51.392;12.448;2023-11-19T07:36:13;8.10;97.30
1075;DHT22;526;51.392;12.448;2023-11-19T07:38:39;8.20;97.30
1075;DHT22;526;51.392;12.448;2023-11-19T07:41:07;8.20;97.30
1075;DHT22;526;51.392;12.448;2023-11-19T07:43:39;8.30;97.30
1075;DHT22;526;51.392;12.448;2023-11-19T07:46:04;8.40;97.30
1075;DHT22;526;51.392;12.448;2023-11-19T07:48:33;8.40;97.30
1075;DHT22;526;51.392;12.448;2023-11-19T07:51:00;8.50;97.30
1075;DHT22;526;51.392;12.448;2023-11-19T07:53:25;8.50;97.30
1075;DHT22;526;51.392;12.448;2023-11-19T07:55:51;8.60;97.30
1075;DHT22;526;51.392;12.448;2023-11-19T07:58:16;8.60;97.30
1075;DHT22;526;51.392;12.448;2023-11-19T08:00:42;8.70;97.30
1075;DHT22;526;51.392;12.448;2023-11-19T08:03:07;8.80;97.30
1075;DHT22;526;51.392;12.448;2023-11-19T08:05:33;8.80;97.30
1075;DHT22;526;51.392;12.448;2023-11-19T08:07:59;8.80;97.30
1075;DHT22;526;51.392;12.448;2023-11-19T08:10:24;8.80;97.30
1075;DHT22;526;51.392;12.448;2023-11-19T08:12:50;8.90;97.30
1075;DHT22;526;51.392;12.448;2023-11-19T08:15:16;8.90;97.30
1075;DHT22;526;51.392;12.448;2023-11-19T08:17:42;8.90;97.30
1075;DHT22;526;51.392;12.448;2023-11-19T08:20:08;8.90;97.30
1075;DHT22;526;51.392;12.448;2023-11-19T08:22:37;9.00;97.30
1075;DHT22;526;51.392;12.448;2023-11-19T08:25:04;9.00;97.30
1075;DHT22;526;51.392;12.448;2023-11-19T08:27:30;9.00;97.30
1075;DHT22;526;51.392;12.448;2023-11-19T08:29:56;9.10;97.30
1075;DHT22;526;51.392;12.448;2023-11-19T08:32:26;9.10;97.30
1075;DHT22;526;51.392;12.448;2023-11-19T08:34:52;9.00;97.30
1075;DHT22;526;51.392;12.448;2023-11-19T08:37:17;9.10;97.30
1075;DHT22;526;51.392;12.448;2023-11-19T08:39:49;9.10;97.30
1075;DHT22;526;51.392;12.448;2023-11-19T08:42:15;9.10;97.30
1075;DHT22;526;51.392;12.448;2023-11-19T08:44:41;9.20;97.30
1075;DHT22;526;51.392;12.448;2023-11-19T08:47:12;9.20;97.30
1075;DHT22;526;51.392;12.448;2023-11-19T08:49:40;9.20;97.30
1075;DHT22;526;51.392;12.448;2023-11-19T08:52:06;9.30;97.30
1075;DHT22;526;51.392;12.448;2023-11-19T08:54:36;9.40;97.30
1075;DHT22;526;51.392;12.448;2023-11-19T08:57:01;9.50;97.30
1075;DHT22;526;51.392;12.448;2023-11-19T08:59:28;9.50;97.30
1075;DHT22;526;51.392;12.448;2023-11-19T09:01:54;9.60;97.30
1075;DHT22;526;51.392;12.448;2023-11-19T09:04:19;9.60;97.30
1075;DHT22;526;51.392;12.448;2023-11-19T09:06:48;9.60;97.30
1075;DHT22;526;51.392;12.448;2023-11-19T09:09:13;9.70;97.30
1075;DHT22;526;51.392;12.448;2023-11-19T09:11:39;9.70;97.30
1075;DHT22;526;51.392;12.448;2023-11-19T09:14:05;9.80;97.30
1075;DHT22;526;51.392;12.448;2023-11-19T09:16:30;9.80;97.30
1075;DHT22;526;51.392;12.448;2023-11-19T09:18:56;9.80;97.30
1075;DHT22;526;51.392;12.448;2023-11-19T09:21:23;9.80;97.30
1075;DHT22;526;51.392;12.448;2023-11-19T09:23:48;9.80;97.30
1075;DHT22;526;51.392;12.448;2023-11-19T09:26:15;9.90;97.30
1075;DHT22;526;51.392;12.448;2023-11-19T09:28:40;10.00;97.30
1075;DHT22;526;51.392;12.448;2023-11-19T09:31:16;10.10;97.30
1075;DHT22;526;51.392;12.448;2023-11-19T09:33:42;10.20;97.30
1075;DHT22;526;51.392;12.448;2023-11-19T09:36:08;10.30;97.30
1075;DHT22;526;51.392;12.448;2023-11-19T09:38:34;10.20;97.30
1075;DHT22;526;51.392;12.448;2023-11-19T09:41:04;10.20;97.30
1075;DHT22;526;51.392;12.448;2023-11-19T09:43:33;10.20;97.30
1075;DHT22;526;51.392;12.448;2023-11-19T09:46:07;10.20;97.30
1075;DHT22;526;51.392;12.448;2023-11-19T09:48:36;10.20;97.30
1075;DHT22;526;51.392;12.448;2023-11-19T09:51:06;10.20;97.30
1075;DHT22;526;51.392;12.448;2023-11-19T09:53:32;10.20;97.30
1075;DHT22;526;51.392;12.448;2023-11-19T09:56:02;10.20;97.30
1075;DHT22;526;51.392;12.448;2023-11-19T09:58:29;10.30;97.30
1075;DHT22;526;51.392;12.448;2023-11-19T10:00:55;10.30;97.30
1075;DHT22;526;51.392;12.448;2023-11-19T10:03:22;10.30;97.30
1075;DHT22;526;51.392;12.448;2023-11-19T10:05:48;10.30;97.30
1075;DHT22;526;51.392;12.448;2023-11-19T10:08:14;10.30;97.30
1075;DHT22;526;51.392;12.448;2023-11-19T10:10:39;10.30;97.30
1075;DHT22;526;51.392;12.448;2023-11-19T10:13:05;10.30;97.30
1075;DHT22;526;51.392;12.448;2023-11-19T10:15:36;10.30;97.30
1075;DHT22;526;51.392;12.448;2023-11-19T10:18:02;10.30;97.30
1075;DHT22;526;51.392;12.448;2023-11-19T10:20:35;10.30;97.30
1075;DHT22;526;51.392;12.448;2023-11-19T10:23:01;10.40;97.30
1075;DHT22;526;51.392;12.448;2023-11-19T10:25:27;10.40;97.30
1075;DHT22;526;51.392;12.448;2023-11-19T10:27:54;10.40;97.30
1075;DHT22;526;51.392;12.448;2023-11-19T10:30:25;10.40;97.30
1075;DHT22;526;51.392;12.448;2023-11-19T10:35:31;10.50;97.30
1075;DHT22;526;51.392;12.448;2023-11-19T10:37:59;10.70;97.30
1075;DHT22;526;51.392;12.448;2023-11-19T10:40:37;11.00;97.30
1075;DHT22;526;51.392;12.448;2023-11-19T10:43:03;11.50;97.30
1075;DHT22;526;51.392;12.448;2023-11-19T10:45:29;11.80;97.30
1075;DHT22;526;51.392;12.448;2023-11-19T10:47:55;12.10;97.30
1075;DHT22;526;51.392;12.448;2023-11-19T10:50:22;12.40;97.30
1075;DHT22;526;51.392;12.448;2023-11-19T10:52:52;12.60;97.30
1075;DHT22;526;51.392;12.448;2023-11-19T10:55:21;12.70;97.30
1075;DHT22;526;51.392;12.448;2023-11-19T10:57:51;12.70;97.30
1075;DHT22;526;51.392;12.448;2023-11-19T11:00:19;12.70;97.30
1075;DHT22;526;51.392;12.448;2023-11-19T11:02:48;12.60;97.30
1075;DHT22;526;51.392;12.448;2023-11-19T11:05:16;12.60;97.30
1075;DHT22;526;51.392;12.448;2023-11-19T11:07:44;12.70;97.30
1075;DHT22;526;51.392;12.448;2023-11-19T11:10:11;12.80;97.30
1075;DHT22;526;51.392;12.448;2023-11-19T11:12:38;12.70;97.30
1075;DHT22;526;51.392;12.448;2023-11-19T11:15:07;12.40;97.30
1075;DHT22;526;51.392;12.448;2023-11-19T11:17:34;12.00;97.30
1075;DHT22;526;51.392;12.448;2023-11-19T11:19:59;11.60;97.30
1075;DHT22;526;51.392;12.448;2023-11-19T11:22:28;11.30;97.30
1075;DHT22;526;51.392;12.448;2023-11-19T11:25:31;11.00;97.30
1075;DHT22;526;51.392;12.448;2023-11-19T11:28:08;10.80;97.30
1075;DHT22;526;51.392;12.448;2023-11-19T11:36:00;10.80;97.30
1075;DHT22;526;51.392;12.448;2023-11-19T11:38:28;10.90;97.30
1075;DHT22;526;51.392;12.448;2023-11-19T11:41:23;10.90;97.30
1075;DHT22;526;51.392;12.448;2023-11-19T11:43:50;11.00;97.30
1075;DHT22;526;51.392;12.448;2023-11-19T11:48:59;11.10;97.30
1075;DHT22;526;51.392;12.448;2023-11-19T11:57:11;11.00;97.30
1075;DHT22;526;51.392;12.448;2023-11-19T11:59:43;11.00;97.30
1075;DHT22;526;51.392;12.448;2023-11-19T12:02:21;11.00;97.30
1075;DHT22;526;51.392;12.448;2023-11-19T12:04:48;11.00;97.30
1075;DHT22;526;51.392;12.448;2023-11-19T12:07:25;11.30;97.30
1075;DHT22;526;51.392;12.448;2023-11-19T12:09:53;11.80;97.30
1075;DHT22;526;51.392;12.448;2023-11-19T12:12:27;12.20;97.30
1075;DHT22;526;51.392;12.448;2023-11-19T12:20:00;13.30;97.30
1075;DHT22;526;51.392;12.448;2023-11-19T12:22:26;13.50;97.30
1075;DHT22;526;51.392;12.448;2023-11-19T12:24:56;13.80;97.30
1075;DHT22;526;51.392;12.448;2023-11-19T12:27:22;14.00;97.30
1075;DHT22;526;51.392;12.448;2023-11-19T12:29:48;14.20;97.30
1075;DHT22;526;51.392;12.448;2023-11-19T12:32:13;14.20;97.30
1075;DHT22;526;51.392;12.448;2023-11-19T12:34:39;14.00;97.30
1075;DHT22;526;51.392;12.448;2023-11-19T12:37:05;13.70;97.30
1075;DHT22;526;51.392;12.448;2023-11-19T12:39:31;13.50;97.30
1075;DHT22;526;51.392;12.448;2023-11-19T12:41:57;13.40;97.30
1075;DHT22;526;51.392;12.448;2023-11-19T12:44:25;13.30;97.30
1075;DHT22;526;51.392;12.448;2023-11-19T12:47:06;13.40;97.30
1075;DHT22;526;51.392;12.448;2023-11-19T12:49:35;13.60;97.30
1075;DHT22;526;51.392;12.448;2023-11-19T12:52:01;13.40;97.30
1075;DHT22;526;51.392;12.448;2023-11-19T12:54:36;13.50;97.30
1075;DHT22;526;51.392;12.448;2023-11-19T12:57:02;13.40;97.30
1075;DHT22;526;51.392;12.448;2023-11-19T12:59:28;13.30;97.30
1075;DHT22;526;51.392;12.448;2023-11-19T13:01:55;13.10;97.30
1075;DHT22;526;51.392;12.448;2023-11-19T13:04:20;13.00;97.30
1075;DHT22;526;51.392;12.448;2023-11-19T13:06:46;12.90;97.30
1075;DHT22;526;51.392;12.448;2023-11-19T13:09:22;12.80;97.30
1075;DHT22;526;51.392;12.448;2023-11-19T13:11:49;12.70;97.30
1075;DHT22;526;51.392;12.448;2023-11-19T13:14:15;12.70;97.30
1075;DHT22;526;51.392;12.448;2023-11-19T13:16:40;12.60;97.30
1075;DHT22;526;51.392;12.448;2023-11-19T13:19:07;12.60;97.30
1075;DHT22;526;51.392;12.448;2023-11-19T13:21:34;12.60;97.30
1075;DHT22;526;51.392;12.448;2023-11-19T13:23:59;12.60;97.30
1075;DHT22;526;51.392;12.448;2023-11-19T13:26:25;12.70;97.30
1075;DHT22;526;51.392;12.448;2023-11-19T13:28:51;12.80;97.30
1075;DHT22;526;51.392;12.448;2023-11-19T13:31:16;13.30;97.30
1075;DHT22;526;51.392;12.448;2023-11-19T13:33:42;13.80;97.30
1075;DHT22;526;51.392;12.448;2023-11-19T13:36:08;14.00;97.30
1075;DHT22;526;51.392;12.448;2023-11-19T13:38:35;13.90;97.30
1075;DHT22;526;51.392;12.448;2023-11-19T13:41:01;13.80;97.30
1075;DHT22;526;51.392;12.448;2023-11-19T13:43:27;13.60;97.30
1075;DHT22;526;51.392;12.448;2023-11-19T13:45:56;13.70;97.30
1075;DHT22;526;51.392;12.448;2023-11-19T13:48:21;13.60;97.30
1075;DHT22;526;51.392;12.448;2023-11-19T13:50:47;13.40;97.30
1075;DHT22;526;51.392;12.448;2023-11-19T13:53:13;13.10;97.30
1075;DHT22;526;51.392;12.448;2023-11-19T13:55:38;13.00;97.30
1075;DHT22;526;51.392;12.448;2023-11-19T13:58:04;13.10;97.30
1075;DHT22;526;51.392;12.448;2023-11-19T14:00:29;13.00;97.30
1075;DHT22;526;51.392;12.448;2023-11-19T14:02:55;12.90;97.30
1075;DHT22;526;51.392;12.448;2023-11-19T14:05:20;12.80;97.30
1075;DHT22;526;51.392;12.448;2023-11-19T14:07:46;12.70;97.30
1075;DHT22;526;51.392;12.448;2023-11-19T14:10:15;12.60;97.30
1075;DHT22;526;51.392;12.448;2023-11-19T14:12:41;12.50;97.30
1075;DHT22;526;51.392;12.448;2023-11-19T14:15:08;12.60;97.30
1075;DHT22;526;51.392;12.448;2023-11-19T14:17:42;12.60;97.30
1075;DHT22;526;51.392;12.448;2023-11-19T14:20:08;12.60;97.30
1075;DHT22;526;51.392;12.448;2023-11-19T14:22:44;12.50;97.30
1075;DHT22;526;51.392;12.448;2023-11-19T14:25:10;12.50;97.30
1075;DHT22;526;51.392;12.448;2023-11-19T14:27:37;12.40;97.30
1075;DHT22;526;51.392;12.448;2023-11-19T14:30:08;12.40;97.30
1075;DHT22;526;51.392;12.448;2023-11-19T14:32:35;12.30;97.30
1075;DHT22;526;51.392;12.448;2023-11-19T14:35:01;12.20;97.30
1075;DHT22;526;51.392;12.448;2023-11-19T14:37:26;12.10;97.30
1075;DHT22;526;51.392;12.448;2023-11-19T14:39:52;12.10;97.30
1075;DHT22;526;51.392;12.448;2023-11-19T14:42:17;12.00;97.30
1075;DHT22;526;51.392;12.448;2023-11-19T14:44:43;12.00;97.30
1075;DHT22;526;51.392;12.448;2023-11-19T14:47:09;11.90;97.30
1075;DHT22;526;51.392;12.448;2023-11-19T14:49:35;11.90;97.30
1075;DHT22;526;51.392;12.448;2023-11-19T14:52:02;11.90;97.30
1075;DHT22;526;51.392;12.448;2023-11-19T14:54:28;11.90;97.30
1075;DHT22;526;51.392;12.448;2023-11-19T14:56:54;12.00;97.30
1075;DHT22;526;51.392;12.448;2023-11-19T14:59:19;12.00;97.30
1075;DHT22;526;51.392;12.448;2023-11-19T15:01:45;11.90;97.30
1075;DHT22;526;51.392;12.448;2023-11-19T15:04:11;11.90;97.30
1075;DHT22;526;51.392;12.448;2023-11-19T15:06:37;11.90;97.30
1075;DHT22;526;51.392;12.448;2023-11-19T15:09:04;11.90;97.30
1075;DHT22;526;51.392;12.448;2023-11-19T15:11:29;11.90;97.30
1075;DHT22;526;51.392;12.448;2023-11-19T15:13:55;11.90;97.30
1075;DHT22;526;51.392;12.448;2023-11-19T15:16:21;11.90;97.30
1075;DHT22;526;51.392;12.448;2023-11-19T15:18:57;11.90;97.30
1075;DHT22;526;51.392;12.448;2023-11-19T15:21:29;11.80;97.30
1075;DHT22;526;51.392;12.448;2023-11-19T15:23:55;11.80;97.30
1075;DHT22;526;51.392;12.448;2023-11-19T15:26:21;11.80;97.30
1075;DHT22;526;51.392;12.448;2023-11-19T15:28:47;11.80;97.30
1075;DHT22;526;51.392;12.448;2023-11-19T15:31:12;11.80;97.30
1075;DHT22;526;51.392;12.448;2023-11-19T15:33:40;11.80;97.30
1075;DHT22;526;51.392;12.448;2023-11-19T15:36:06;11.80;97.30
1075;DHT22;526;51.392;12.448;2023-11-19T15:38:36;11.70;97.30
1075;DHT22;526;51.392;12.448;2023-11-19T15:41:01;11.70;97.30
1075;DHT22;526;51.392;12.448;2023-11-19T15:43:30;11.70;97.30
1075;DHT22;526;51.392;12.448;2023-11-19T15:45:56;11.70;97.30
1075;DHT22;526;51.392;12.448;2023-11-19T15:48:22;11.70;97.30
1075;DHT22;526;51.392;12.448;2023-11-19T15:50:47;11.70;97.30
1075;DHT22;526;51.392;12.448;2023-11-19T15:53:13;11.70;97.30
1075;DHT22;526;51.392;12.448;2023-11-19T15:55:38;11.70;97.30
1075;DHT22;526;51.392;12.448;2023-11-19T15:58:04;11.70;97.30
1075;DHT22;526;51.392;12.448;2023-11-19T16:00:30;11.60;97.30
1075;DHT22;526;51.392;12.448;2023-11-19T16:02:56;11.60;97.30
1075;DHT22;526;51.392;12.448;2023-11-19T16:05:22;11.60;97.30
1075;DHT22;526;51.392;12.448;2023-11-19T16:07:49;11.60;97.30
1075;DHT22;526;51.392;12.448;2023-11-19T16:10:15;11.60;97.30
1075;DHT22;526;51.392;12.448;2023-11-19T16:12:45;11.60;97.30
1075;DHT22;526;51.392;12.448;2023-11-19T16:15:10;11.70;97.30
1075;DHT22;526;51.392;12.448;2023-11-19T16:17:36;11.70;97.30
1075;DHT22;526;51.392;12.448;2023-11-19T16:20:04;11.70;97.30
1075;DHT22;526;51.392;12.448;2023-11-19T16:22:33;11.70;97.30
1075;DHT22;526;51.392;12.448;2023-11-19T16:24:59;11.70;97.30
1075;DHT22;526;51.392;12.448;2023-11-19T16:27:24;11.60;97.30
1075;DHT22;526;51.392;12.448;2023-11-19T16:29:50;11.60;97.30
1075;DHT22;526;51.392;12.448;2023-11-19T16:32:16;11.50;97.30
1075;DHT22;526;51.392;12.448;2023-11-19T16:34:42;11.50;97.30
1075;DHT22;526;51.392;12.448;2023-11-19T16:37:11;11.50;97.30
1075;DHT22;526;51.392;12.448;2023-11-19T16:39:36;11.50;97.30
1075;DHT22;526;51.392;12.448;2023-11-19T16:42:02;11.50;97.30
1075;DHT22;526;51.392;12.448;2023-11-19T16:44:28;11.60;97.30
1075;DHT22;526;51.392;12.448;2023-11-19T16:46:53;11.60;97.30
1075;DHT22;526;51.392;12.448;2023-11-19T16:49:19;11.60;97.30
1075;DHT22;526;51.392;12.448;2023-11-19T16:51:45;11.50;97.30
1075;DHT22;526;51.392;12.448;2023-11-19T16:54:11;11.50;97.30
1075;DHT22;526;51.392;12.448;2023-11-19T16:56:37;11.50;97.30
1075;DHT22;526;51.392;12.448;2023-11-19T16:59:06;11.50;97.30
1075;DHT22;526;51.392;12.448;2023-11-19T17:01:31;11.50;97.30
1075;DHT22;526;51.392;12.448;2023-11-19T17:03:57;11.50;97.30
1075;DHT22;526;51.392;12.448;2023-11-19T17:06:23;11.50;97.30
1075;DHT22;526;51.392;12.448;2023-11-19T17:08:49;11.50;97.30
1075;DHT22;526;51.392;12.448;2023-11-19T17:11:14;11.40;97.30
1075;DHT22;526;51.392;12.448;2023-11-19T17:13:40;11.40;97.30
1075;DHT22;526;51.392;12.448;2023-11-19T17:16:05;11.40;97.30
1075;DHT22;526;51.392;12.448;2023-11-19T17:18:33;11.40;97.30
1075;DHT22;526;51.392;12.448;2023-11-19T17:20:59;11.40;97.30
1075;DHT22;526;51.392;12.448;2023-11-19T17:23:26;11.40;97.30
1075;DHT22;526;51.392;12.448;2023-11-19T17:25:52;11.40;97.30
1075;DHT22;526;51.392;12.448;2023-11-19T17:28:18;11.40;97.30
1075;DHT22;526;51.392;12.448;2023-11-19T17:30:44;11.40;97.30
1075;DHT22;526;51.392;12.448;2023-11-19T17:33:09;11.30;97.30
1075;DHT22;526;51.392;12.448;2023-11-19T17:35:36;11.70;97.30
1075;DHT22;526;51.392;12.448;2023-11-19T17:38:02;11.60;97.30
1075;DHT22;526;51.392;12.448;2023-11-19T17:40:27;11.50;97.30
1075;DHT22;526;51.392;12.448;2023-11-19T17:42:53;11.40;97.30
1075;DHT22;526;51.392;12.448;2023-11-19T17:45:19;11.30;97.30
1075;DHT22;526;51.392;12.448;2023-11-19T17:47:45;11.30;97.30
1075;DHT22;526;51.392;12.448;2023-11-19T17:50:11;11.20;97.30
1075;DHT22;526;51.392;12.448;2023-11-19T17:52:37;11.20;97.30
1075;DHT22;526;51.392;12.448;2023-11-19T17:55:03;11.20;97.30
1075;DHT22;526;51.392;12.448;2023-11-19T17:57:29;11.20;97.30
1075;DHT22;526;51.392;12.448;2023-11-19T17:59:55;11.20;97.30
1075;DHT22;526;51.392;12.448;2023-11-19T18:02:21;11.20;97.30
1075;DHT22;526;51.392;12.448;2023-11-19T18:04:46;11.20;97.30
1075;DHT22;526;51.392;12.448;2023-11-19T18:07:14;11.20;97.30
1075;DHT22;526;51.392;12.448;2023-11-19T18:09:39;11.20;97.30
1075;DHT22;526;51.392;12.448;2023-11-19T18:12:05;11.20;97.30
1075;DHT22;526;51.392;12.448;2023-11-19T18:14:31;11.20;97.30
1075;DHT22;526;51.392;12.448;2023-11-19T18:16:56;11.20;97.30
1075;DHT22;526;51.392;12.448;2023-11-19T18:19:22;11.20;97.30
1075;DHT22;526;51.392;12.448;2023-11-19T18:21:47;11.10;97.30
1075;DHT22;526;51.392;12.448;2023-11-19T18:24:13;11.10;97.30
1075;DHT22;526;51.392;12.448;2023-11-19T18:26:41;11.10;97.30
1075;DHT22;526;51.392;12.448;2023-11-19T18:29:07;11.10;97.30
1075;DHT22;526;51.392;12.448;2023-11-19T18:31:32;11.10;97.30
1075;DHT22;526;51.392;12.448;2023-11-19T18:33:58;11.10;97.30
1075;DHT22;526;51.392;12.448;2023-11-19T18:36:24;11.10;97.30
1075;DHT22;526;51.392;12.448;2023-11-19T18:38:50;11.00;97.30
1075;DHT22;526;51.392;12.448;2023-11-19T18:41:15;11.00;97.30
1075;DHT22;526;51.392;12.448;2023-11-19T18:43:41;11.00;97.30
1075;DHT22;526;51.392;12.448;2023-11-19T18:46:07;11.00;97.30
1075;DHT22;526;51.392;12.448;2023-11-19T18:48:34;11.00;97.30
1075;DHT22;526;51.392;12.448;2023-11-19T18:50:59;11.00;97.30
1075;DHT22;526;51.392;12.448;2023-11-19T18:53:26;11.00;97.30
1075;DHT22;526;51.392;12.448;2023-11-19T18:55:51;11.00;97.30
1075;DHT22;526;51.392;12.448;2023-11-19T18:58:17;11.10;97.30
1075;DHT22;526;51.392;12.448;2023-11-19T19:00:43;11.10;97.30
1075;DHT22;526;51.392;12.448;2023-11-19T19:03:08;11.10;97.30
1075;DHT22;526;51.392;12.448;2023-11-19T19:05:38;11.20;97.30
1075;DHT22;526;51.392;12.448;2023-11-19T19:08:03;11.20;97.30
1075;DHT22;526;51.392;12.448;2023-11-19T19:10:29;11.20;97.30
1075;DHT22;526;51.392;12.448;2023-11-19T19:12:55;11.20;97.30
1075;DHT22;526;51.392;12.448;2023-11-19T19:15:20;11.30;97.30
1075;DHT22;526;51.392;12.448;2023-11-19T19:17:46;11.20;97.30
1075;DHT22;526;51.392;12.448;2023-11-19T19:20:11;11.20;97.30
1075;DHT22;526;51.392;12.448;2023-11-19T19:22:37;11.20;97.30
1075;DHT22;526;51.392;12.448;2023-11-19T19:25:05;11.20;97.30
1075;DHT22;526;51.392;12.448;2023-11-19T19:27:31;11.20;97.30
1075;DHT22;526;51.392;12.448;2023-11-19T19:29:56;11.20;97.30
1075;DHT22;526;51.392;12.448;2023-11-19T19:32:22;11.20;97.30
1075;DHT22;526;51.392;12.448;2023-11-19T19:34:48;11.20;97.30
1075;DHT22;526;51.392;12.448;2023-11-19T19:37:14;11.20;97.30
1075;DHT22;526;51.392;12.448;2023-11-19T19:39:39;11.20;97.30
1075;DHT22;526;51.392;12.448;2023-11-19T19:42:05;11.20;97.30
1075;DHT22;526;51.392;12.448;2023-11-19T19:44:31;11.20;97.30
1075;DHT22;526;51.392;12.448;2023-11-19T19:46:56;11.20;97.30
1075;DHT22;526;51.392;12.448;2023-11-19T19:49:22;11.10;97.30
1075;DHT22;526;51.392;12.448;2023-11-19T19:51:48;11.10;97.30
1075;DHT22;526;51.392;12.448;2023-11-19T19:54:13;11.10;97.30
1075;DHT22;526;51.392;12.448;2023-11-19T19:56:39;11.00;97.30
1075;DHT22;526;51.392;12.448;2023-11-19T19:59:05;11.10;97.30
1075;DHT22;526;51.392;12.448;2023-11-19T20:01:31;11.10;97.30
1075;DHT22;526;51.392;12.448;2023-11-19T20:03:56;11.10;97.30
1075;DHT22;526;51.392;12.448;2023-11-19T20:06:22;11.10;97.30
1075;DHT22;526;51.392;12.448;2023-11-19T20:08:50;11.10;97.30
1075;DHT22;526;51.392;12.448;2023-11-19T20:11:15;11.10;97.30
1075;DHT22;526;51.392;12.448;2023-11-19T20:13:41;11.20;97.30
1075;DHT22;526;51.392;12.448;2023-11-19T20:16:09;11.20;97.30
1075;DHT22;526;51.392;12.448;2023-11-19T20:18:35;11.20;97.30
1075;DHT22;526;51.392;12.448;2023-11-19T20:21:01;11.10;97.30
1075;DHT22;526;51.392;12.448;2023-11-19T20:23:30;11.10;97.30
1075;DHT22;526;51.392;12.448;2023-11-19T20:25:55;11.10;97.30
1075;DHT22;526;51.392;12.448;2023-11-19T20:28:21;11.10;97.30
1075;DHT22;526;51.392;12.448;2023-11-19T20:30:47;11.00;97.30
1075;DHT22;526;51.392;12.448;2023-11-19T20:33:12;11.00;97.30
1075;DHT22;526;51.392;12.448;2023-11-19T20:35:38;11.00;97.30
1075;DHT22;526;51.392;12.448;2023-11-19T20:38:05;11.00;97.30
1075;DHT22;526;51.392;12.448;2023-11-19T20:40:30;10.90;97.30
1075;DHT22;526;51.392;12.448;2023-11-19T20:42:56;11.00;97.30
1075;DHT22;526;51.392;12.448;2023-11-19T20:45:22;11.00;97.30
1075;DHT22;526;51.392;12.448;2023-11-19T20:47:47;10.90;97.30
1075;DHT22;526;51.392;12.448;2023-11-19T20:50:14;10.90;97.30
1075;DHT22;526;51.392;12.448;2023-11-19T20:52:40;11.00;97.30
1075;DHT22;526;51.392;12.448;2023-11-19T20:55:06;11.00;97.30
1075;DHT22;526;51.392;12.448;2023-11-19T20:57:33;11.00;97.30
1075;DHT22;526;51.392;12.448;2023-11-19T20:59:58;11.00;97.30
1075;DHT22;526;51.392;12.448;2023-11-19T21:02:24;11.00;97.30
1075;DHT22;526;51.392;12.448;2023-11-19T21:04:50;11.00;97.30
1075;DHT22;526;51.392;12.448;2023-11-19T21:07:15;11.00;97.30
1075;DHT22;526;51.392;12.448;2023-11-19T21:09:41;11.00;97.30
1075;DHT22;526;51.392;12.448;2023-11-19T21:12:07;11.00;97.30
1075;DHT22;526;51.392;12.448;2023-11-19T21:14:34;11.10;97.30
1075;DHT22;526;51.392;12.448;2023-11-19T21:17:00;11.10;97.30
1075;DHT22;526;51.392;12.448;2023-11-19T21:19:25;11.00;97.30
1075;DHT22;526;51.392;12.448;2023-11-19T21:21:52;11.00;97.30
1075;DHT22;526;51.392;12.448;2023-11-19T21:24:17;11.00;97.30
1075;DHT22;526;51.392;12.448;2023-11-19T21:26:43;11.00;97.30